Time;durP1;ratioP1;P1;durP2;ratioP2;P2;SDS_P1;SDS_P2;PMS_P1;PMS_P2;Temp;Humidity;BMP_temperature;BMP_pressure;BME280_temperature;BME280_humidity;BME280_pressure;Samples;Min_cycle;Max_cycle;Signal;HPM_P1;HPM_P2
2021/01/02 00:02:08;;;;;;;84.20;17.90;;;1.50;63.30;;;;;;5025076;28;39937;-85
2021/01/02 00:05:04;;;;;;;43.47;17.07;;;1.40;63.30;;;;;;5023074;28;38108;-84
2021/01/02 00:08:09;;;;;;;92.27;19.63;;;1.40;63.50;;;;;;5005550;28;38542;-84
2021/01/02 00:10:51;;;;;;;75.17;18.53;;;1.40;63.70;;;;;;5004861;28;39735;-85
2021/01/02 00:13:40;;;;;;;105.83;19.73;;;1.40;63.70;;;;;;5008733;28;39903;-81
2021/01/02 00:27:47;;;;;;;79.57;17.10;;;1.20;63.90;;;;;;5022441;28;38835;-85
2021/01/02 00:31:03;;;;;;;99.60;18.63;;;1.20;64.00;;;;;;4995372;28;37058;-85
2021/01/02 00:34:31;;;;;;;60.47;16.90;;;1.20;64.00;;;;;;4955151;28;37460;-85
2021/01/02 00:37:17;;;;;;;55.30;15.60;;;1.10;64.30;;;;;;4979902;28;38429;-85
2021/01/02 00:40:14;;;;;;;41.47;15.97;;;1.10;64.40;;;;;;5015113;28;38942;-84
2021/01/02 00:42:45;;;;;;;49.97;13.77;;;1.10;64.30;;;;;;5007246;28;38317;-84
2021/01/02 00:45:13;;;;;;;68.13;15.03;;;1.10;64.40;;;;;;5012994;28;37181;-82
2021/01/02 00:47:42;;;;;;;45.63;17.67;;;1.10;64.50;;;;;;4999422;28;38724;-84
2021/01/02 00:50:23;;;;;;;49.37;15.70;;;1.10;64.70;;;;;;4995957;28;38055;-83
2021/01/02 00:53:29;;;;;;;48.23;16.77;;;1.10;64.90;;;;;;5007122;28;37798;-82
2021/01/02 01:00:20;;;;;;;57.17;14.70;;;1.10;64.70;;;;;;5006943;28;40327;-84
2021/01/02 01:03:02;;;;;;;65.20;15.90;;;1.20;64.70;;;;;;5012653;28;39927;-83
2021/01/02 01:25:11;;;;;;;36.70;14.27;;;1.00;64.50;;;;;;4828658;29;35381;-85
2021/01/02 01:28:40;;;;;;;22.80;14.30;;;1.00;64.50;;;;;;4869458;29;41255;-84
2021/01/02 01:31:57;;;;;;;35.13;14.67;;;1.10;64.40;;;;;;4875681;29;39751;-83
2021/01/02 02:01:08;;;;;;;23.13;13.90;;;1.10;63.30;;;;;;4777333;29;40530;-82
2021/01/02 02:03:48;;;;;;;21.23;12.90;;;1.20;63.60;;;;;;4846656;29;38060;-83
2021/01/02 02:06:25;;;;;;;17.40;11.70;;;1.30;63.40;;;;;;4897203;29;37896;-83
2021/01/02 02:08:59;;;;;;;20.70;13.37;;;1.40;63.20;;;;;;4985808;28;39646;-84
2021/01/02 02:30:45;;;;;;;21.90;13.00;;;1.40;62.50;;;;;;4870609;29;39187;-85
2021/01/02 02:40:20;;;;;;;20.47;13.30;;;1.60;62.00;;;;;;4810527;29;39937;-84
2021/01/02 02:42:57;;;;;;;19.30;13.50;;;1.60;61.70;;;;;;4867784;29;36896;-85
2021/01/02 02:45:30;;;;;;;21.23;14.17;;;1.60;61.70;;;;;;4919934;29;37906;-84
2021/01/02 02:48:12;;;;;;;18.30;12.67;;;1.50;61.80;;;;;;4976999;28;39852;-84
2021/01/02 02:50:41;;;;;;;20.60;12.70;;;1.60;61.80;;;;;;4989616;28;38907;-84
2021/01/02 02:53:12;;;;;;;17.47;12.37;;;1.60;61.50;;;;;;4964794;28;37355;-84
2021/01/02 02:55:43;;;;;;;18.10;12.87;;;1.60;61.40;;;;;;5014787;28;37337;-84
2021/01/02 02:58:16;;;;;;;16.80;12.20;;;1.60;61.40;;;;;;5009595;28;39426;-84
2021/01/02 03:00:49;;;;;;;20.20;12.40;;;1.60;61.30;;;;;;5009775;28;39116;-84
2021/01/02 03:03:17;;;;;;;15.67;12.00;;;1.60;61.40;;;;;;4997207;28;37300;-84
2021/01/02 03:05:47;;;;;;;17.63;13.07;;;1.60;61.40;;;;;;5011010;28;38187;-82
2021/01/02 03:08:42;;;;;;;17.37;12.00;;;1.60;61.40;;;;;;5010450;28;39501;-83
2021/01/02 03:11:09;;;;;;;16.60;12.20;;;1.60;61.40;;;;;;5000094;28;39032;-84
2021/01/02 03:13:48;;;;;;;18.17;12.13;;;1.60;61.30;;;;;;5023686;28;38928;-85
2021/01/02 03:16:48;;;;;;;14.30;11.30;;;1.70;61.40;;;;;;5015446;28;37012;-84
2021/01/02 03:19:39;;;;;;;15.20;10.80;;;1.60;61.20;;;;;;5011444;28;39593;-84
2021/01/02 03:22:30;;;;;;;16.60;12.00;;;1.70;61.10;;;;;;4995780;28;38281;-84
2021/01/02 03:24:57;;;;;;;17.07;11.73;;;1.60;60.80;;;;;;4999128;28;38316;-82
2021/01/02 03:27:25;;;;;;;18.60;12.33;;;1.60;61.00;;;;;;5000683;28;37422;-83
2021/01/02 03:32:54;;;;;;;18.30;11.60;;;1.60;61.30;;;;;;4996599;28;38890;-83
2021/01/02 03:35:22;;;;;;;13.87;11.07;;;1.60;61.70;;;;;;5004980;28;38044;-83
2021/01/02 03:37:49;;;;;;;14.67;10.70;;;1.60;61.10;;;;;;5013429;28;38835;-83
2021/01/02 03:40:17;;;;;;;16.60;12.00;;;1.60;61.10;;;;;;4994920;28;40585;-83
2021/01/02 03:42:46;;;;;;;17.27;11.60;;;1.60;61.10;;;;;;5011618;28;39742;-83
2021/01/02 03:45:14;;;;;;;15.40;11.67;;;1.60;61.20;;;;;;4995139;28;36680;-83
2021/01/02 03:47:44;;;;;;;18.43;12.40;;;1.60;61.20;;;;;;5022503;28;37423;-82
2021/01/02 03:50:13;;;;;;;16.33;11.93;;;1.60;61.10;;;;;;5015482;28;39453;-82
2021/01/02 03:52:41;;;;;;;17.10;11.73;;;1.60;61.10;;;;;;5015050;28;40013;-83
2021/01/02 03:55:09;;;;;;;14.60;11.27;;;1.60;61.10;;;;;;5026958;28;38234;-83
2021/01/02 03:57:36;;;;;;;15.97;11.77;;;1.60;61.20;;;;;;5005316;28;36171;-83
2021/01/02 04:00:04;;;;;;;15.40;10.87;;;1.70;61.20;;;;;;5004044;28;39943;-82
2021/01/02 04:02:32;;;;;;;14.83;10.80;;;1.70;60.90;;;;;;5016963;28;39863;-83
2021/01/02 04:04:59;;;;;;;15.33;11.53;;;1.70;61.00;;;;;;5014143;28;37986;-82
2021/01/02 04:07:26;;;;;;;14.93;11.23;;;1.80;61.10;;;;;;5002327;28;38032;-84
2021/01/02 04:09:57;;;;;;;14.80;10.90;;;1.80;60.90;;;;;;5017272;28;40525;-87
2021/01/02 04:12:24;;;;;;;15.33;10.57;;;1.80;60.90;;;;;;5020120;28;39388;-85
2021/01/02 04:14:51;;;;;;;13.27;10.60;;;1.80;60.90;;;;;;5011131;28;38564;-84
2021/01/02 04:17:18;;;;;;;14.40;10.93;;;1.80;60.80;;;;;;5006263;28;36061;-83
2021/01/02 04:19:47;;;;;;;13.57;10.00;;;1.80;60.50;;;;;;5025766;28;39278;-84
2021/01/02 04:22:14;;;;;;;12.37;8.53;;;1.70;59.90;;;;;;5010376;28;38974;-82
2021/01/02 04:24:43;;;;;;;13.80;9.77;;;1.60;59.80;;;;;;4992793;28;38527;-83
2021/01/02 04:27:13;;;;;;;16.73;10.87;;;1.60;59.80;;;;;;5000036;28;37430;-82
2021/01/02 04:29:40;;;;;;;15.40;10.77;;;1.60;59.90;;;;;;5015570;28;39889;-82
2021/01/02 04:32:07;;;;;;;13.07;9.77;;;1.50;60.10;;;;;;4994708;28;37795;-82
2021/01/02 04:34:34;;;;;;;14.13;9.70;;;1.50;60.40;;;;;;4994889;28;37543;-83
2021/01/02 04:37:01;;;;;;;15.33;10.90;;;1.50;60.00;;;;;;5003708;28;36982;-82
2021/01/02 04:39:28;;;;;;;15.20;10.23;;;1.50;60.40;;;;;;4972466;28;37974;-82
2021/01/02 04:41:56;;;;;;;13.90;9.70;;;1.50;60.60;;;;;;4985109;28;38795;-82
2021/01/02 04:44:26;;;;;;;13.33;10.17;;;1.50;60.50;;;;;;5003188;28;39339;-83
2021/01/02 04:46:55;;;;;;;13.73;9.83;;;1.40;60.40;;;;;;5013557;28;37341;-83
2021/01/02 04:49:22;;;;;;;13.50;9.50;;;1.40;60.60;;;;;;5008852;28;40393;-83
2021/01/02 04:51:49;;;;;;;14.90;9.60;;;1.40;60.70;;;;;;4982998;28;37970;-82
2021/01/02 04:54:20;;;;;;;16.27;10.63;;;1.50;60.60;;;;;;5014390;28;38168;-82
2021/01/02 04:56:49;;;;;;;12.70;9.03;;;1.50;60.80;;;;;;5001210;28;36470;-83
2021/01/02 04:59:24;;;;;;;15.43;9.60;;;1.40;60.70;;;;;;5000577;28;38667;-83
2021/01/02 05:01:53;;;;;;;16.03;10.27;;;1.50;60.90;;;;;;5008938;28;38476;-83
2021/01/02 05:04:22;;;;;;;15.93;9.73;;;1.50;60.90;;;;;;5007697;28;38661;-82
2021/01/02 05:06:49;;;;;;;12.40;8.93;;;1.50;60.60;;;;;;5015265;28;37328;-82
2021/01/02 05:09:16;;;;;;;13.70;9.30;;;1.50;60.80;;;;;;5022890;28;39620;-82
2021/01/02 05:11:43;;;;;;;14.40;9.83;;;1.60;61.00;;;;;;5016719;28;40495;-82
2021/01/02 05:14:10;;;;;;;13.20;9.13;;;1.60;60.70;;;;;;5003860;28;38229;-82
2021/01/02 05:16:38;;;;;;;12.07;8.57;;;1.60;60.60;;;;;;5005945;28;37331;-83
2021/01/02 05:19:10;;;;;;;16.20;10.17;;;1.60;60.10;;;;;;4997614;28;39970;-86
2021/01/02 05:21:42;;;;;;;14.60;10.03;;;1.50;60.10;;;;;;5009884;28;39022;-84
2021/01/02 05:24:13;;;;;;;13.17;9.50;;;1.50;60.30;;;;;;5004472;28;39004;-84
2021/01/02 05:26:42;;;;;;;13.40;8.97;;;1.40;60.50;;;;;;5012853;28;37052;-83
2021/01/02 05:29:11;;;;;;;15.27;10.40;;;1.50;60.40;;;;;;5008522;28;40281;-83
2021/01/02 05:31:39;;;;;;;16.17;9.30;;;1.50;60.50;;;;;;5009369;28;39132;-83
2021/01/02 05:34:07;;;;;;;14.93;9.97;;;1.50;60.50;;;;;;5005892;28;39326;-85
2021/01/02 05:36:35;;;;;;;12.60;9.03;;;1.60;60.60;;;;;;5008328;28;37095;-85
2021/01/02 05:39:02;;;;;;;14.60;10.17;;;1.60;60.50;;;;;;5003331;28;40489;-85
2021/01/02 05:41:47;;;;;;;14.50;9.60;;;1.60;60.40;;;;;;4989646;28;39312;-84
2021/01/02 05:44:14;;;;;;;15.30;10.07;;;1.70;60.50;;;;;;4979170;28;36668;-84
2021/01/02 05:46:50;;;;;;;16.90;10.90;;;1.70;60.30;;;;;;4991154;28;35825;-84
2021/01/02 05:49:38;;;;;;;15.07;9.53;;;1.70;59.90;;;;;;4995018;28;38459;-85
2021/01/02 05:52:07;;;;;;;14.23;9.57;;;1.60;59.80;;;;;;4999937;28;38789;-85
2021/01/02 05:54:39;;;;;;;15.23;9.67;;;1.60;60.10;;;;;;5010628;28;37913;-84
2021/01/02 05:57:06;;;;;;;14.13;9.53;;;1.70;60.20;;;;;;4992592;28;37375;-85
2021/01/02 05:59:38;;;;;;;14.37;9.73;;;1.70;60.20;;;;;;5012173;28;40354;-85
2021/01/02 06:02:21;;;;;;;17.10;10.93;;;1.70;60.20;;;;;;5016602;28;39072;-85
2021/01/02 06:05:00;;;;;;;16.27;10.67;;;1.70;60.10;;;;;;5012524;28;38208;-86
2021/01/02 06:07:29;;;;;;;14.77;9.83;;;1.70;59.90;;;;;;5004145;28;36428;-84
2021/01/02 06:09:57;;;;;;;15.00;9.37;;;1.70;59.90;;;;;;4995808;28;39473;-85
2021/01/02 06:12:29;;;;;;;13.20;9.33;;;1.70;59.90;;;;;;5012419;28;40164;-85
2021/01/02 06:14:57;;;;;;;15.30;9.80;;;1.70;59.90;;;;;;5012272;28;37842;-85
2021/01/02 06:17:29;;;;;;;14.80;10.13;;;1.70;59.90;;;;;;5010433;28;37711;-85
2021/01/02 06:20:01;;;;;;;16.40;10.10;;;1.60;59.80;;;;;;5009478;28;39658;-82
2021/01/02 06:22:29;;;;;;;14.07;9.07;;;1.60;59.80;;;;;;4992278;28;38107;-83
2021/01/02 06:24:57;;;;;;;12.80;8.87;;;1.60;59.90;;;;;;5018477;28;38074;-82
2021/01/02 06:27:24;;;;;;;15.67;10.80;;;1.60;59.80;;;;;;5020955;28;37849;-83
2021/01/02 06:29:53;;;;;;;15.10;10.17;;;1.60;59.80;;;;;;5009281;28;39575;-83
2021/01/02 06:32:21;;;;;;;14.60;10.30;;;1.60;59.80;;;;;;5003408;28;39258;-83
2021/01/02 06:35:22;;;;;;;15.17;10.30;;;1.60;59.80;;;;;;5007841;28;38290;-83
2021/01/02 06:38:12;;;;;;;15.53;9.47;;;1.50;59.80;;;;;;4985743;28;37432;-84
2021/01/02 06:40:42;;;;;;;14.90;10.23;;;1.50;60.10;;;;;;4986279;28;38566;-83
2021/01/02 06:43:11;;;;;;;16.20;10.30;;;1.50;60.00;;;;;;4993558;28;39176;-83
2021/01/02 06:46:05;;;;;;;15.40;10.20;;;1.60;60.40;;;;;;5004970;28;38960;-84
2021/01/02 06:48:34;;;;;;;15.00;9.20;;;1.60;60.30;;;;;;5007863;28;37426;-83
2021/01/02 06:51:26;;;;;;;17.10;9.70;;;1.60;60.00;;;;;;4989551;28;38378;-83
2021/01/02 06:53:53;;;;;;;14.90;10.10;;;1.70;60.20;;;;;;4996334;28;40217;-83
2021/01/02 06:56:35;;;;;;;15.40;9.93;;;1.60;59.80;;;;;;5004500;28;39281;-84
2021/01/02 06:59:04;;;;;;;16.47;10.27;;;1.60;59.90;;;;;;5010142;28;38246;-83
2021/01/02 07:01:41;;;;;;;14.93;10.07;;;1.60;60.20;;;;;;5007011;28;39873;-84
2021/01/02 07:04:08;;;;;;;15.00;10.17;;;1.70;60.40;;;;;;5010801;28;39094;-84
2021/01/02 07:06:38;;;;;;;15.20;9.90;;;1.70;60.20;;;;;;5011612;28;38098;-83
2021/01/02 07:09:21;;;;;;;15.77;10.50;;;1.60;60.20;;;;;;4991222;28;37096;-84
2021/01/02 07:11:49;;;;;;;16.40;10.03;;;1.70;60.20;;;;;;5010062;28;39829;-81
2021/01/02 07:14:21;;;;;;;17.00;10.63;;;1.70;59.90;;;;;;5018490;28;39324;-82
2021/01/02 07:16:50;;;;;;;15.80;11.00;;;1.70;59.90;;;;;;5019675;28;38012;-83
2021/01/02 07:19:48;;;;;;;18.17;10.57;;;1.70;60.00;;;;;;5006637;28;36186;-82
2021/01/02 07:22:25;;;;;;;16.27;10.80;;;1.80;60.00;;;;;;5030133;28;38273;-83
2021/01/02 07:25:04;;;;;;;16.00;10.10;;;1.80;60.00;;;;;;5020826;28;39486;-83
2021/01/02 07:27:33;;;;;;;17.10;10.57;;;1.80;60.10;;;;;;5027016;28;38320;-83
2021/01/02 07:30:05;;;;;;;14.23;10.00;;;1.80;60.00;;;;;;4997413;28;36501;-82
2021/01/02 07:32:34;;;;;;;19.90;11.20;;;1.80;60.00;;;;;;5013624;28;39587;-83
2021/01/02 07:35:02;;;;;;;15.27;10.43;;;1.80;59.90;;;;;;5013418;28;39029;-83
2021/01/02 07:37:32;;;;;;;17.77;10.13;;;1.90;59.80;;;;;;4997370;28;38277;-82
2021/01/02 07:40:01;;;;;;;17.87;10.83;;;1.90;59.80;;;;;;5013533;28;37044;-83
2021/01/02 07:42:30;;;;;;;15.83;9.57;;;1.80;59.50;;;;;;4996694;28;39620;-83
2021/01/02 07:45:00;;;;;;;16.70;10.37;;;1.80;59.60;;;;;;5009717;28;39172;-83
2021/01/02 07:47:28;;;;;;;16.10;9.63;;;1.80;59.60;;;;;;4984736;28;36695;-83
2021/01/02 07:50:00;;;;;;;15.40;10.50;;;1.80;59.50;;;;;;4999998;28;35921;-83
2021/01/02 07:52:27;;;;;;;17.13;10.60;;;1.90;59.50;;;;;;5001386;28;39655;-83
2021/01/02 07:54:55;;;;;;;16.60;9.60;;;2.00;59.30;;;;;;5008249;28;40285;-83
2021/01/02 07:57:26;;;;;;;15.53;10.40;;;2.00;59.30;;;;;;4994381;28;36938;-83
2021/01/02 07:59:54;;;;;;;14.43;10.27;;;2.10;59.50;;;;;;5014707;28;37137;-83
2021/01/02 08:02:23;;;;;;;14.70;9.17;;;2.10;59.60;;;;;;5030037;28;38413;-84
2021/01/02 08:04:51;;;;;;;14.03;10.43;;;2.20;59.60;;;;;;5015001;28;37518;-85
2021/01/02 08:07:18;;;;;;;16.17;10.73;;;2.30;59.60;;;;;;5033231;28;39355;-84
2021/01/02 08:09:46;;;;;;;12.33;9.20;;;2.30;59.20;;;;;;4995614;28;37011;-85
2021/01/02 08:12:15;;;;;;;15.40;10.07;;;2.40;59.00;;;;;;4995514;28;39486;-84
2021/01/02 08:14:47;;;;;;;14.70;10.50;;;2.40;58.70;;;;;;5011683;28;40293;-84
2021/01/02 08:17:16;;;;;;;15.03;10.47;;;2.40;58.70;;;;;;4997415;28;36732;-82
2021/01/02 08:19:55;;;;;;;14.33;9.50;;;2.40;58.60;;;;;;5010341;28;36335;-83
2021/01/02 08:22:30;;;;;;;14.23;9.30;;;2.40;58.40;;;;;;4994784;28;38391;-83
2021/01/02 08:24:58;;;;;;;14.73;10.33;;;2.40;58.50;;;;;;4996807;28;39288;-82
2021/01/02 08:27:27;;;;;;;15.60;10.10;;;2.40;58.40;;;;;;5012175;28;38739;-84
2021/01/02 08:29:54;;;;;;;12.60;8.57;;;2.40;58.40;;;;;;5008652;28;38099;-83
2021/01/02 08:32:25;;;;;;;12.97;9.30;;;2.40;58.40;;;;;;5003133;28;40013;-83
2021/01/02 08:34:52;;;;;;;12.97;9.40;;;2.40;58.40;;;;;;5016701;28;39617;-83
2021/01/02 08:37:20;;;;;;;15.00;9.40;;;2.40;58.40;;;;;;5023103;28;38701;-85
2021/01/02 08:40:07;;;;;;;14.80;10.20;;;2.50;58.40;;;;;;5013769;28;38365;-84
2021/01/02 08:42:36;;;;;;;14.37;9.60;;;2.50;58.30;;;;;;4997978;28;39581;-83
2021/01/02 08:45:05;;;;;;;14.87;10.50;;;2.60;58.00;;;;;;5010782;28;39387;-82
2021/01/02 08:47:32;;;;;;;14.47;10.33;;;2.60;58.00;;;;;;5015400;28;38444;-82
2021/01/02 08:50:10;;;;;;;11.50;8.80;;;2.60;57.90;;;;;;4994766;28;36328;-83
2021/01/02 08:52:41;;;;;;;14.20;9.67;;;2.70;57.90;;;;;;5007103;28;40270;-82
2021/01/02 08:55:13;;;;;;;13.90;9.30;;;2.70;57.90;;;;;;4997077;28;39508;-82
2021/01/02 08:57:46;;;;;;;14.10;10.70;;;2.80;58.00;;;;;;5005167;28;38685;-83
2021/01/02 09:00:24;;;;;;;13.33;9.40;;;2.90;57.80;;;;;;5013716;28;37883;-84
2021/01/02 09:03:06;;;;;;;14.13;9.47;;;3.00;57.70;;;;;;5010140;28;40513;-82
2021/01/02 09:05:37;;;;;;;13.03;9.80;;;3.20;57.50;;;;;;5007331;28;38706;-83
2021/01/02 09:08:06;;;;;;;15.13;9.10;;;3.30;57.20;;;;;;5012314;28;37852;-82
2021/01/02 09:10:37;;;;;;;13.70;8.97;;;3.40;56.60;;;;;;4989198;28;36093;-83
2021/01/02 09:13:19;;;;;;;14.10;9.83;;;3.60;56.70;;;;;;5009920;28;39690;-82
2021/01/02 09:15:54;;;;;;;15.73;12.27;;;3.80;56.30;;;;;;4995235;28;39427;-82
2021/01/02 09:18:39;;;;;;;11.10;8.43;;;4.00;55.70;;;;;;5008856;28;38599;-84
2021/01/02 09:21:23;;;;;;;12.40;8.80;;;4.30;55.30;;;;;;5005456;28;37604;-85
2021/01/02 09:23:53;;;;;;;12.27;7.93;;;4.40;54.50;;;;;;4990689;28;38277;-83
2021/01/02 09:26:35;;;;;;;13.43;11.23;;;4.60;54.10;;;;;;5021253;28;39003;-83
2021/01/02 09:29:13;;;;;;;12.93;9.03;;;4.70;53.40;;;;;;5023905;28;38535;-83
2021/01/02 09:31:40;;;;;;;12.00;8.50;;;4.90;52.60;;;;;;5010310;28;37826;-83
2021/01/02 09:34:07;;;;;;;11.50;8.43;;;5.00;52.50;;;;;;5015773;28;39767;-84
2021/01/02 09:36:35;;;;;;;11.77;7.60;;;5.00;51.80;;;;;;4996556;28;37905;-85
2021/01/02 09:39:03;;;;;;;10.57;8.13;;;5.10;51.70;;;;;;5007703;28;38127;-84
2021/01/02 09:41:34;;;;;;;12.80;9.50;;;5.10;51.50;;;;;;5010672;28;38203;-84
2021/01/02 09:44:01;;;;;;;10.63;8.20;;;5.10;50.90;;;;;;5013500;28;40717;-84
2021/01/02 09:46:30;;;;;;;9.50;7.67;;;5.20;51.00;;;;;;5010499;28;39830;-84
2021/01/02 09:49:15;;;;;;;10.93;8.83;;;5.20;50.80;;;;;;5014369;28;38158;-84
2021/01/02 09:51:42;;;;;;;11.63;8.63;;;5.20;50.30;;;;;;5010427;28;37197;-84
2021/01/02 09:54:09;;;;;;;12.10;8.33;;;5.10;50.00;;;;;;4993433;28;38446;-86
2021/01/02 09:56:44;;;;;;;11.30;8.20;;;5.00;49.80;;;;;;5011493;28;39358;-86
2021/01/02 09:59:11;;;;;;;12.70;8.33;;;4.90;49.70;;;;;;5011946;28;39097;-86
2021/01/02 10:01:38;;;;;;;12.47;9.30;;;4.80;49.70;;;;;;4996482;28;35784;-88
2021/01/02 10:04:05;;;;;;;12.23;8.80;;;4.80;50.00;;;;;;5013174;28;40802;-86
2021/01/02 10:06:32;;;;;;;10.83;9.10;;;4.70;49.90;;;;;;5013539;28;38978;-86
2021/01/02 10:08:59;;;;;;;11.83;9.37;;;4.50;50.50;;;;;;5014062;28;38022;-85
2021/01/02 10:11:27;;;;;;;11.73;8.63;;;4.70;51.20;;;;;;5013319;28;37246;-85
2021/01/02 10:13:55;;;;;;;12.40;9.30;;;4.70;51.40;;;;;;5021210;28;40103;-85
2021/01/02 10:16:22;;;;;;;10.93;8.53;;;4.80;51.70;;;;;;5021752;28;39065;-84
2021/01/02 10:18:49;;;;;;;12.97;9.30;;;4.90;51.70;;;;;;5016061;28;38894;-84
2021/01/02 10:21:16;;;;;;;12.33;9.07;;;5.00;51.10;;;;;;5013491;28;37236;-84
2021/01/02 10:23:43;;;;;;;13.57;9.63;;;5.10;50.60;;;;;;5018734;28;40113;-85
2021/01/02 10:26:10;;;;;;;14.63;10.10;;;4.90;50.00;;;;;;4997220;28;38112;-85
2021/01/02 10:28:38;;;;;;;14.90;9.27;;;4.70;50.30;;;;;;4987773;28;37126;-85
2021/01/02 10:31:06;;;;;;;18.10;10.23;;;4.70;50.90;;;;;;5011318;28;37476;-84
2021/01/02 10:33:33;;;;;;;14.77;10.53;;;4.80;51.40;;;;;;5012695;28;40259;-82
2021/01/02 10:36:00;;;;;;;13.77;9.23;;;4.90;50.60;;;;;;5013333;28;40182;-83
2021/01/02 10:38:29;;;;;;;13.77;9.17;;;5.00;50.60;;;;;;5012706;28;38738;-84
2021/01/02 10:40:56;;;;;;;13.63;10.07;;;4.90;50.20;;;;;;5013378;28;36988;-84
2021/01/02 10:43:23;;;;;;;14.23;10.00;;;5.00;50.40;;;;;;5008987;28;39648;-85
2021/01/02 10:45:50;;;;;;;11.80;9.00;;;5.00;50.20;;;;;;5006683;28;39256;-87
2021/01/02 10:48:18;;;;;;;13.73;8.40;;;4.80;50.00;;;;;;4992094;28;36702;-87
2021/01/02 10:50:48;;;;;;;13.33;9.43;;;4.80;50.20;;;;;;4994494;28;37722;-84
2021/01/02 10:53:14;;;;;;;12.83;9.43;;;4.80;50.00;;;;;;5005597;28;39971;-85
2021/01/02 10:55:45;;;;;;;14.07;8.80;;;4.90;50.20;;;;;;5010507;28;38876;-85
2021/01/02 10:58:12;;;;;;;14.60;9.53;;;4.90;50.20;;;;;;5001920;28;37912;-85
2021/01/02 11:00:38;;;;;;;11.90;8.80;;;5.10;50.30;;;;;;5005155;28;37186;-85
2021/01/02 11:03:06;;;;;;;13.80;9.67;;;5.30;50.00;;;;;;5007304;28;39893;-85
2021/01/02 11:05:34;;;;;;;11.17;8.93;;;5.40;49.90;;;;;;5009561;28;39101;-84
2021/01/02 11:08:01;;;;;;;14.33;9.67;;;5.50;49.50;;;;;;4994360;28;37737;-84
2021/01/02 11:10:28;;;;;;;15.27;10.10;;;5.70;49.50;;;;;;5005099;28;35632;-83
2021/01/02 11:12:55;;;;;;;12.80;10.13;;;5.70;48.20;;;;;;5007064;28;39281;-81
2021/01/02 11:15:22;;;;;;;12.50;9.10;;;5.80;48.30;;;;;;4993485;28;38398;-84
2021/01/02 11:17:51;;;;;;;12.30;9.63;;;5.80;48.10;;;;;;4996473;28;37064;-86
2021/01/02 11:20:20;;;;;;;15.70;9.77;;;5.80;48.10;;;;;;4993035;28;35351;-85
2021/01/02 11:22:48;;;;;;;12.47;9.13;;;5.80;48.40;;;;;;5003766;28;38485;-86
2021/01/02 11:25:16;;;;;;;12.87;9.50;;;5.70;48.20;;;;;;5006518;28;37996;-85
2021/01/02 11:27:43;;;;;;;13.63;9.63;;;5.60;48.40;;;;;;5034377;28;37494;-86
2021/01/02 11:30:12;;;;;;;13.77;9.90;;;5.50;48.40;;;;;;5016714;28;37366;-86
2021/01/02 11:32:42;;;;;;;14.10;9.73;;;5.50;48.60;;;;;;5003621;28;40342;-87
2021/01/02 11:35:12;;;;;;;13.73;9.67;;;5.40;49.20;;;;;;5013477;28;38461;-87
2021/01/02 11:37:41;;;;;;;22.60;10.50;;;5.30;49.30;;;;;;5010780;28;38807;-87
2021/01/02 11:40:11;;;;;;;13.87;9.63;;;5.30;49.50;;;;;;5017125;28;37654;-86
2021/01/02 11:42:38;;;;;;;14.00;10.10;;;5.10;49.40;;;;;;5008477;28;39463;-85
2021/01/02 11:45:12;;;;;;;11.67;9.30;;;4.90;49.30;;;;;;4993600;28;21076;-86
2021/01/02 11:47:39;;;;;;;14.30;10.03;;;4.80;49.80;;;;;;5007102;28;38958;-85
2021/01/02 11:50:07;;;;;;;12.03;8.97;;;4.60;49.80;;;;;;4985588;28;37287;-86
2021/01/02 11:52:34;;;;;;;14.30;9.87;;;4.40;50.40;;;;;;5000775;28;40235;-85
2021/01/02 11:55:03;;;;;;;14.60;9.80;;;4.30;51.00;;;;;;5005935;28;39147;-85
2021/01/02 11:57:30;;;;;;;16.20;10.50;;;4.30;51.40;;;;;;5006775;28;38968;-85
2021/01/02 11:59:57;;;;;;;14.13;10.63;;;4.30;51.60;;;;;;5010894;28;37205;-85
2021/01/02 12:02:24;;;;;;;15.90;10.10;;;4.30;52.00;;;;;;5001642;28;39776;-85
2021/01/02 12:04:51;;;;;;;18.40;11.07;;;4.30;52.10;;;;;;5009996;28;39946;-84
2021/01/02 12:07:21;;;;;;;14.23;9.73;;;4.40;52.30;;;;;;4994047;28;36683;-86
2021/01/02 12:09:50;;;;;;;13.23;9.50;;;4.50;52.10;;;;;;4997293;28;38858;-89
2021/01/02 12:12:20;;;;;;;16.00;8.83;;;4.50;51.50;;;;;;5020814;28;39792;-88
2021/01/02 12:14:48;;;;;;;16.47;9.50;;;4.40;51.50;;;;;;5017323;28;38544;-88
2021/01/02 12:17:15;;;;;;;13.10;9.30;;;4.30;51.60;;;;;;5014299;28;38962;-87
2021/01/02 12:19:46;;;;;;;13.80;9.87;;;4.20;51.70;;;;;;5010604;28;37247;-86
2021/01/02 12:22:15;;;;;;;13.33;9.40;;;4.10;51.50;;;;;;5017835;28;39956;-89
2021/01/02 12:24:44;;;;;;;12.37;8.97;;;4.20;51.60;;;;;;5016136;28;40023;-88
2021/01/02 12:27:11;;;;;;;13.00;9.33;;;4.20;51.80;;;;;;5019067;28;38306;-87
2021/01/02 12:29:39;;;;;;;15.07;10.20;;;4.10;51.40;;;;;;4991921;28;37598;-88
2021/01/02 12:32:10;;;;;;;12.00;9.33;;;4.00;51.60;;;;;;5007967;28;40893;-87
2021/01/02 12:34:42;;;;;;;15.40;10.27;;;3.90;51.80;;;;;;4985472;28;37985;-87
2021/01/02 12:37:13;;;;;;;14.57;10.20;;;3.90;52.00;;;;;;5012080;28;37868;-86
2021/01/02 12:39:41;;;;;;;13.43;9.27;;;3.90;52.30;;;;;;5006662;28;37526;-86
2021/01/02 12:42:10;;;;;;;13.20;9.40;;;4.00;52.20;;;;;;5014950;28;40798;-87
2021/01/02 12:44:38;;;;;;;12.83;9.23;;;4.10;52.00;;;;;;4997489;28;38663;-87
2021/01/02 12:47:09;;;;;;;14.73;9.63;;;4.20;51.90;;;;;;5010465;28;37666;-86
2021/01/02 12:49:37;;;;;;;13.40;8.60;;;4.20;51.80;;;;;;4998467;28;37211;-86
2021/01/02 12:52:06;;;;;;;13.87;9.33;;;4.40;51.50;;;;;;5013774;28;40364;-87
2021/01/02 12:54:34;;;;;;;12.40;8.47;;;4.40;51.50;;;;;;5008892;28;38954;-85
2021/01/02 12:57:01;;;;;;;12.70;8.60;;;4.40;50.70;;;;;;5005768;28;38915;-86
2021/01/02 12:59:30;;;;;;;12.97;8.87;;;4.30;50.50;;;;;;5016147;28;37421;-86
2021/01/02 13:01:58;;;;;;;13.20;8.90;;;4.30;50.90;;;;;;4998059;28;38280;-86
2021/01/02 13:04:27;;;;;;;10.67;8.47;;;4.30;51.00;;;;;;4994154;28;38855;-86
2021/01/02 13:06:56;;;;;;;12.57;8.70;;;4.10;51.00;;;;;;5012444;28;37997;-86
2021/01/02 13:09:23;;;;;;;15.97;9.40;;;4.10;50.80;;;;;;5013089;28;37247;-86
2021/01/02 13:11:53;;;;;;;14.10;8.73;;;4.10;51.10;;;;;;5019544;28;39826;-86
2021/01/02 13:14:21;;;;;;;12.50;9.03;;;4.00;51.20;;;;;;5017692;28;39271;-86
2021/01/02 13:16:50;;;;;;;13.37;8.87;;;4.10;51.50;;;;;;5012871;28;38422;-86
2021/01/02 13:19:17;;;;;;;14.07;10.13;;;4.00;51.10;;;;;;5001839;28;35861;-86
2021/01/02 13:21:47;;;;;;;12.80;9.33;;;4.00;51.40;;;;;;5000804;28;40772;-86
2021/01/02 13:24:17;;;;;;;14.00;8.97;;;4.10;51.70;;;;;;5007578;28;40165;-86
2021/01/02 13:26:49;;;;;;;11.47;8.50;;;4.10;51.20;;;;;;4997966;28;36669;-86
2021/01/02 13:29:20;;;;;;;12.13;8.40;;;4.20;50.80;;;;;;5004715;28;35790;-86
2021/01/02 13:31:51;;;;;;;11.93;8.43;;;4.10;50.40;;;;;;5012095;28;39412;-85
2021/01/02 13:34:18;;;;;;;11.33;8.00;;;4.00;50.60;;;;;;5023799;28;37890;-87
2021/01/02 13:36:46;;;;;;;11.80;8.03;;;3.90;51.40;;;;;;5016980;28;38512;-87
2021/01/02 13:39:17;;;;;;;13.33;8.87;;;3.80;50.70;;;;;;5023525;28;38476;-88
2021/01/02 13:41:45;;;;;;;10.77;7.50;;;3.80;50.80;;;;;;5019182;28;41201;-87
2021/01/02 13:44:23;;;;;;;13.00;8.30;;;3.90;50.70;;;;;;5009073;28;39349;-86
2021/01/02 13:46:58;;;;;;;14.60;9.10;;;3.90;50.70;;;;;;5012433;28;38695;-88
2021/01/02 13:49:25;;;;;;;11.70;8.27;;;3.90;51.10;;;;;;5010353;28;37352;-87
2021/01/02 13:51:55;;;;;;;13.63;8.90;;;3.90;50.90;;;;;;5017237;28;37776;-85
2021/01/02 13:54:22;;;;;;;12.60;8.00;;;3.90;51.00;;;;;;5022124;28;39080;-86
2021/01/02 13:56:50;;;;;;;14.00;9.20;;;4.00;51.10;;;;;;5019062;28;38035;-86
2021/01/02 13:59:19;;;;;;;13.53;8.20;;;3.90;50.90;;;;;;5000030;28;35681;-86
2021/01/02 14:01:46;;;;;;;12.53;7.90;;;4.00;51.00;;;;;;5023457;28;40303;-86
2021/01/02 14:04:13;;;;;;;12.00;7.97;;;4.00;51.10;;;;;;5000967;28;37914;-86
2021/01/02 14:06:45;;;;;;;13.23;8.73;;;4.00;51.10;;;;;;4989208;28;36601;-86
2021/01/02 14:09:13;;;;;;;11.30;8.17;;;4.10;50.90;;;;;;4998197;28;37606;-86
2021/01/02 14:11:40;;;;;;;13.03;8.63;;;4.10;51.10;;;;;;4986595;28;38695;-87
2021/01/02 14:14:07;;;;;;;12.43;8.47;;;4.10;50.30;;;;;;4989892;28;38067;-86
2021/01/02 14:16:35;;;;;;;10.80;7.57;;;4.10;50.60;;;;;;5010110;28;37727;-86
2021/01/02 14:19:02;;;;;;;13.33;8.07;;;4.10;50.60;;;;;;4992824;28;35743;-87
2021/01/02 14:21:29;;;;;;;11.43;8.40;;;4.10;50.50;;;;;;4996416;28;38470;-86
2021/01/02 14:23:56;;;;;;;12.30;8.20;;;4.20;50.70;;;;;;5008891;28;39194;-86
2021/01/02 14:26:25;;;;;;;10.53;7.60;;;4.20;50.60;;;;;;5010014;28;38142;-87
2021/01/02 14:28:53;;;;;;;14.07;9.50;;;4.10;49.90;;;;;;5005571;28;36661;-85
2021/01/02 14:31:21;;;;;;;11.67;7.90;;;4.00;50.10;;;;;;5010378;28;39446;-85
2021/01/02 14:33:48;;;;;;;13.57;8.30;;;3.90;50.00;;;;;;5010137;28;39036;-85
2021/01/02 14:36:17;;;;;;;13.27;9.10;;;3.80;50.20;;;;;;4989723;28;39123;-86
2021/01/02 14:38:45;;;;;;;18.60;9.20;;;3.70;50.50;;;;;;5006818;28;38310;-86